createdAt,value
2019-05-17T00:00:16.785Z,7.30
2019-05-17T00:02:48.480Z,7.20
2019-05-17T00:05:19.017Z,7.10
2019-05-17T00:07:49.562Z,7.00
2019-05-17T00:10:20.108Z,7.00
2019-05-17T00:12:50.994Z,6.90
2019-05-17T00:15:21.558Z,6.80
2019-05-17T00:17:53.070Z,6.80
2019-05-17T00:20:26.459Z,6.70
2019-05-17T00:22:57.347Z,6.70
2019-05-17T00:25:28.113Z,6.60
2019-05-17T00:27:58.686Z,6.50
2019-05-17T00:30:29.282Z,6.50
2019-05-17T00:32:59.739Z,6.40
2019-05-17T00:35:30.882Z,6.40
2019-05-17T00:38:01.408Z,6.30
2019-05-17T00:40:36.690Z,6.30
2019-05-17T00:43:07.515Z,6.20
2019-05-17T00:45:38.108Z,6.20
2019-05-17T00:48:10.102Z,6.10
2019-05-17T00:50:40.615Z,6.10
2019-05-17T00:53:11.374Z,6.00
2019-05-17T00:55:41.876Z,6.00
2019-05-17T00:58:12.449Z,5.90
2019-05-17T01:00:42.943Z,5.90
2019-05-17T01:03:13.405Z,5.90
2019-05-17T01:05:43.928Z,5.80
2019-05-17T01:08:14.394Z,5.80
2019-05-17T01:10:47.523Z,5.80
2019-05-17T01:13:18.212Z,5.80
2019-05-17T01:15:48.962Z,5.70
2019-05-17T01:18:19.421Z,5.70
2019-05-17T01:20:49.957Z,5.70
2019-05-17T01:23:20.431Z,5.70
2019-05-17T01:25:51.218Z,5.60
2019-05-17T01:28:21.872Z,5.60
2019-05-17T01:30:52.388Z,5.50
2019-05-17T01:33:23.221Z,5.50
2019-05-17T01:35:53.744Z,5.50
2019-05-17T01:38:26.774Z,5.40
2019-05-17T01:40:56.541Z,5.40
2019-05-17T01:43:27.462Z,5.40
2019-05-17T01:45:58.343Z,5.30
2019-05-17T01:48:29.376Z,5.30
2019-05-17T01:50:59.882Z,5.30
2019-05-17T01:53:30.407Z,5.30
2019-05-17T01:56:01.012Z,5.30
2019-05-17T01:58:31.624Z,5.30
2019-05-17T02:01:02.192Z,5.20
2019-05-17T02:03:32.679Z,5.20
2019-05-17T02:06:03.362Z,5.20
2019-05-17T02:08:33.861Z,5.20
2019-05-17T02:11:06.658Z,5.10
2019-05-17T02:13:37.857Z,5.10
2019-05-17T02:16:08.422Z,5.10
2019-05-17T02:18:38.930Z,5.00
2019-05-17T02:21:09.831Z,5.00
2019-05-17T02:23:40.405Z,5.00
2019-05-17T02:26:11.079Z,4.90
2019-05-17T02:28:41.573Z,4.90
2019-05-17T02:31:13.294Z,4.80
2019-05-17T02:33:44.614Z,4.80
2019-05-17T02:36:15.115Z,4.70
2019-05-17T02:38:45.640Z,4.70
2019-05-17T02:41:16.099Z,4.70
2019-05-17T02:43:46.636Z,4.60
2019-05-17T02:46:17.321Z,4.60
2019-05-17T02:48:47.915Z,4.50
2019-05-17T02:51:18.413Z,4.50
2019-05-17T02:53:48.975Z,4.50
2019-05-17T02:56:19.425Z,4.40
2019-05-17T02:58:53.331Z,4.40
2019-05-17T03:01:23.327Z,4.40
2019-05-17T03:03:55.030Z,4.30
2019-05-17T03:06:25.548Z,4.30
2019-05-17T03:08:56.013Z,4.30
2019-05-17T03:11:26.492Z,4.30
2019-05-17T03:13:59.434Z,4.30
2019-05-17T03:16:33.579Z,4.30
2019-05-17T03:19:04.156Z,4.30
2019-05-17T03:21:34.528Z,4.20
2019-05-17T03:24:05.559Z,4.20
2019-05-17T03:26:36.415Z,4.20
2019-05-17T03:29:06.883Z,4.20
2019-05-17T03:31:44.825Z,4.20
2019-05-17T03:34:16.930Z,4.20
2019-05-17T03:36:46.857Z,4.20
2019-05-17T03:39:15.521Z,4.10
2019-05-17T03:41:46.005Z,4.10
2019-05-17T03:44:16.810Z,4.10
2019-05-17T03:46:47.292Z,4.10
2019-05-17T03:49:17.895Z,4.00
2019-05-17T03:51:53.167Z,4.00
2019-05-17T03:54:24.455Z,4.00
2019-05-17T03:56:54.950Z,4.00
2019-05-17T03:59:25.441Z,4.00
2019-05-17T04:01:56.338Z,4.00
2019-05-17T04:04:26.947Z,3.90
2019-05-17T04:06:57.517Z,3.90
2019-05-17T04:09:32.873Z,3.90
2019-05-17T04:12:03.110Z,3.90
2019-05-17T04:14:33.782Z,3.90
2019-05-17T04:17:04.502Z,4.00
2019-05-17T04:19:35.028Z,4.00
2019-05-17T04:22:05.481Z,4.00
2019-05-17T04:24:36.081Z,4.00
2019-05-17T04:27:06.812Z,4.10
2019-05-17T04:29:37.380Z,4.10
2019-05-17T04:32:07.890Z,4.10
2019-05-17T04:34:38.464Z,4.10
2019-05-17T04:37:08.996Z,4.20
2019-05-17T04:39:39.569Z,4.20
2019-05-17T04:42:13.354Z,4.20
2019-05-17T04:44:43.197Z,4.30
2019-05-17T04:47:13.947Z,4.30
2019-05-17T04:49:44.449Z,4.40
2019-05-17T04:52:14.909Z,4.40
2019-05-17T04:54:45.695Z,4.50
2019-05-17T04:57:16.349Z,4.50
2019-05-17T04:59:47.366Z,4.60
2019-05-17T05:02:17.920Z,4.70
2019-05-17T05:04:49.749Z,4.70
2019-05-17T05:07:22.626Z,4.80
2019-05-17T05:09:52.591Z,4.90
2019-05-17T05:12:23.105Z,5.00
2019-05-17T05:14:53.717Z,5.10
2019-05-17T05:17:24.205Z,5.20
2019-05-17T05:19:54.879Z,5.30
2019-05-17T05:22:25.349Z,5.40
2019-05-17T05:24:56.240Z,5.50
2019-05-17T05:27:26.693Z,5.60
2019-05-17T05:29:57.278Z,5.70
2019-05-17T05:32:27.790Z,5.90
2019-05-17T05:34:58.353Z,6.00
2019-05-17T05:37:28.830Z,6.10
2019-05-17T05:40:02.372Z,6.30
2019-05-17T05:42:33.212Z,6.40
2019-05-17T05:45:03.723Z,6.50
2019-05-17T05:47:34.186Z,6.60
2019-05-17T05:50:06.089Z,6.80
2019-05-17T05:52:36.700Z,6.90
2019-05-17T05:55:07.733Z,7.00
2019-05-17T05:57:38.385Z,7.10
2019-05-17T06:00:13.010Z,7.30
2019-05-17T06:02:43.641Z,7.40
2019-05-17T06:05:17.270Z,7.50
2019-05-17T06:07:47.314Z,7.70
2019-05-17T06:10:21.775Z,7.80
2019-05-17T06:12:52.087Z,7.90
2019-05-17T06:15:23.489Z,8.10
2019-05-17T06:17:54.784Z,8.20
2019-05-17T06:20:26.052Z,8.30
2019-05-17T06:22:58.118Z,8.50
2019-05-17T06:25:28.657Z,8.60
2019-05-17T06:28:02.116Z,8.80
2019-05-17T06:30:32.566Z,8.90
2019-05-17T06:33:03.152Z,9.10
2019-05-17T06:35:33.640Z,9.20
2019-05-17T06:38:04.152Z,9.40
2019-05-17T06:40:34.661Z,9.50
2019-05-17T06:43:05.315Z,9.60
2019-05-17T06:45:35.830Z,9.80
2019-05-17T06:48:06.575Z,9.80
2019-05-17T06:50:37.065Z,10.00
2019-05-17T06:53:07.593Z,10.10
2019-05-17T06:55:42.393Z,10.20
2019-05-17T06:58:13.113Z,10.40
2019-05-17T07:00:43.593Z,10.50
2019-05-17T07:03:14.117Z,10.60
2019-05-17T07:05:46.414Z,10.70
2019-05-17T07:08:16.979Z,10.80
2019-05-17T07:10:47.473Z,10.90
2019-05-17T07:13:19.804Z,11.00
2019-05-17T07:15:51.081Z,11.10
2019-05-17T07:18:21.683Z,11.10
2019-05-17T07:20:52.288Z,11.20
2019-05-17T07:23:22.817Z,11.30
2019-05-17T07:25:53.375Z,11.40
2019-05-17T07:28:24.103Z,11.50
2019-05-17T07:30:55.066Z,11.60
2019-05-17T07:33:26.805Z,11.70
2019-05-17T07:35:59.373Z,11.80
2019-05-17T07:38:30.377Z,11.90
2019-05-17T07:41:01.053Z,12.00
2019-05-17T07:43:31.602Z,12.10
2019-05-17T07:46:02.089Z,12.10
2019-05-17T07:48:32.577Z,12.20
2019-05-17T07:51:03.077Z,12.30
2019-05-17T07:53:33.844Z,12.40
2019-05-17T07:56:16.103Z,12.50
2019-05-17T07:58:46.692Z,12.60
2019-05-17T08:01:17.181Z,12.70
2019-05-17T08:03:49.961Z,12.70
2019-05-17T08:06:21.998Z,12.80
2019-05-17T08:08:52.515Z,12.90
2019-05-17T08:11:23.029Z,13.00
2019-05-17T08:13:53.535Z,13.10
2019-05-17T08:16:25.505Z,13.20
2019-05-17T08:18:56.009Z,13.30
2019-05-17T08:21:26.543Z,13.40
2019-05-17T08:23:59.874Z,13.50
2019-05-17T08:26:32.543Z,13.50
2019-05-17T08:29:03.212Z,13.60
2019-05-17T08:31:33.739Z,13.70
2019-05-17T08:34:04.257Z,13.80
2019-05-17T08:36:34.793Z,13.90
2019-05-17T08:39:07.224Z,14.00
2019-05-17T08:41:40.242Z,14.10
2019-05-17T08:44:10.309Z,14.20
2019-05-17T08:46:41.070Z,14.30
2019-05-17T08:49:12.037Z,14.40
2019-05-17T08:51:42.544Z,14.60
2019-05-17T08:54:13.074Z,14.60
2019-05-17T08:56:43.583Z,14.70
2019-05-17T08:59:14.233Z,14.80
2019-05-17T09:01:44.766Z,14.90
2019-05-17T09:04:15.628Z,15.00
2019-05-17T09:06:46.102Z,15.10
2019-05-17T09:09:16.822Z,15.20
2019-05-17T09:11:50.039Z,15.30
2019-05-17T09:14:21.443Z,15.40
2019-05-17T09:16:52.098Z,15.40
2019-05-17T09:19:22.866Z,15.50
2019-05-17T09:21:53.576Z,15.60
2019-05-17T09:24:24.469Z,15.70
2019-05-17T09:26:55.097Z,15.80
2019-05-17T09:29:25.588Z,15.90
2019-05-17T09:31:56.097Z,16.00
2019-05-17T09:34:26.666Z,16.10
2019-05-17T09:37:05.660Z,16.30
2019-05-17T09:39:36.226Z,16.40
2019-05-17T09:42:06.983Z,16.50
2019-05-17T09:44:40.245Z,16.70
2019-05-17T09:47:10.379Z,16.80
2019-05-17T09:49:40.981Z,16.90
2019-05-17T09:52:11.616Z,17.10
2019-05-17T09:54:45.290Z,17.20
2019-05-17T09:57:14.432Z,17.40
2019-05-17T09:59:44.888Z,17.50
2019-05-17T10:02:15.416Z,17.70
2019-05-17T10:04:47.013Z,17.80
2019-05-17T10:07:17.680Z,18.00
2019-05-17T10:09:50.145Z,18.10
2019-05-17T10:12:20.884Z,18.30
2019-05-17T10:14:51.396Z,18.50
2019-05-17T10:17:21.913Z,18.60
2019-05-17T10:19:52.384Z,18.70
2019-05-17T10:22:22.954Z,18.90
2019-05-17T10:24:53.408Z,19.10
2019-05-17T10:27:23.895Z,19.30
2019-05-17T10:29:54.487Z,19.50
2019-05-17T10:32:25.005Z,19.60
2019-05-17T10:34:55.466Z,19.80
2019-05-17T10:37:26.006Z,20.00
2019-05-17T10:39:56.525Z,20.20
2019-05-17T10:42:27.037Z,20.40
2019-05-17T10:44:59.784Z,20.60
2019-05-17T10:47:30.880Z,20.90
2019-05-17T10:50:01.497Z,21.10
2019-05-17T10:52:32.022Z,21.30
2019-05-17T10:55:02.638Z,21.50
2019-05-17T10:57:33.334Z,21.70
2019-05-17T11:00:05.149Z,21.80
2019-05-17T11:02:35.712Z,22.00
2019-05-17T11:05:07.636Z,22.30
2019-05-17T11:07:38.256Z,22.50
2019-05-17T11:10:11.575Z,22.80
2019-05-17T11:12:41.880Z,23.00
2019-05-17T11:15:13.072Z,23.20
2019-05-17T11:17:43.588Z,23.40
2019-05-17T11:20:14.586Z,23.60
2019-05-17T11:22:45.083Z,23.70
2019-05-17T11:25:15.632Z,24.00
2019-05-17T11:27:46.121Z,24.10
2019-05-17T11:30:17.198Z,24.30
2019-05-17T11:32:48.110Z,24.50
2019-05-17T11:35:18.643Z,24.70
2019-05-17T11:37:49.413Z,24.90
2019-05-17T11:40:20.915Z,25.10
2019-05-17T11:42:51.393Z,25.30
2019-05-17T11:45:27.912Z,25.50
2019-05-17T11:47:54.177Z,25.60
2019-05-17T11:50:24.853Z,25.80
2019-05-17T11:52:55.285Z,25.90
2019-05-17T11:55:25.788Z,26.10
2019-05-17T11:57:56.240Z,26.20
2019-05-17T12:00:27.442Z,26.50
2019-05-17T12:02:58.016Z,26.80
2019-05-17T12:05:28.708Z,27.10
2019-05-17T12:07:59.384Z,27.40
2019-05-17T12:10:30.039Z,27.70
2019-05-17T12:13:00.606Z,27.90
2019-05-17T12:15:44.544Z,28.00
2019-05-17T12:18:03.753Z,28.00
2019-05-17T12:20:34.288Z,28.20
2019-05-17T12:23:04.860Z,28.40
2019-05-17T12:25:35.652Z,28.60
2019-05-17T12:28:06.670Z,28.90
2019-05-17T12:30:38.708Z,29.20
2019-05-17T12:33:09.219Z,29.50
2019-05-17T12:35:40.119Z,29.90
2019-05-17T12:38:11.372Z,30.30
2019-05-17T12:40:41.996Z,30.80
2019-05-17T12:43:12.647Z,31.60
2019-05-17T12:45:43.142Z,32.40
2019-05-17T12:48:13.650Z,32.70
2019-05-17T12:50:44.621Z,32.60
2019-05-17T12:53:15.186Z,32.70
2019-05-17T12:55:45.665Z,33.30
2019-05-17T12:58:17.915Z,34.30
2019-05-17T13:00:49.840Z,35.40
2019-05-17T13:03:20.466Z,36.30
2019-05-17T13:05:52.561Z,36.30
2019-05-17T13:08:23.037Z,35.70
2019-05-17T13:10:53.535Z,35.10
2019-05-17T13:13:24.023Z,35.10
2019-05-17T13:15:54.484Z,34.80
2019-05-17T13:18:24.932Z,34.90
2019-05-17T13:20:57.693Z,35.50
2019-05-17T13:23:28.326Z,36.30
2019-05-17T13:25:58.865Z,37.30
2019-05-17T13:28:29.383Z,38.00
2019-05-17T13:31:00.222Z,38.70
2019-05-17T13:33:41.851Z,39.50
2019-05-17T13:36:12.492Z,40.30
2019-05-17T13:38:43.015Z,41.10
2019-05-17T13:41:14.374Z,41.30
2019-05-17T13:43:44.945Z,41.40
2019-05-17T13:46:15.420Z,41.40
2019-05-17T13:48:46.975Z,41.40
2019-05-17T13:51:17.569Z,41.50
2019-05-17T13:53:48.690Z,41.70
2019-05-17T13:56:19.301Z,42.10
2019-05-17T13:58:51.019Z,42.50
2019-05-17T14:01:23.143Z,42.60
2019-05-17T14:03:54.024Z,42.20
2019-05-17T14:06:24.614Z,41.80
2019-05-17T14:08:55.123Z,41.40
2019-05-17T14:11:26.601Z,41.40
2019-05-17T14:13:57.273Z,41.50
2019-05-17T14:16:27.742Z,41.60
2019-05-17T14:18:58.283Z,41.70
2019-05-17T14:21:29.041Z,41.50
2019-05-17T14:24:01.683Z,41.60
2019-05-17T14:26:32.660Z,41.60
2019-05-17T14:29:05.955Z,41.20
2019-05-17T14:31:36.465Z,40.90
2019-05-17T14:34:12.386Z,40.40
2019-05-17T14:36:42.916Z,39.90
2019-05-17T14:39:14.745Z,39.00
2019-05-17T14:41:45.460Z,38.50
2019-05-17T14:44:15.953Z,38.30
2019-05-17T14:46:46.412Z,37.90
2019-05-17T14:49:17.911Z,37.20
2019-05-17T14:51:48.409Z,36.40
2019-05-17T14:54:19.254Z,36.20
2019-05-17T14:56:51.226Z,35.60
2019-05-17T14:59:22.960Z,35.80
2019-05-17T15:01:53.473Z,36.30
2019-05-17T15:04:24.490Z,36.50
2019-05-17T15:06:55.104Z,36.80
2019-05-17T15:09:25.612Z,36.90
2019-05-17T15:11:56.505Z,36.70
2019-05-17T15:14:29.555Z,36.20
2019-05-17T15:17:03.054Z,35.40
2019-05-17T15:19:35.108Z,35.10
2019-05-17T15:22:06.635Z,34.60
2019-05-17T15:24:37.227Z,34.30
2019-05-17T15:27:07.732Z,33.80
2019-05-17T15:29:38.325Z,33.40
2019-05-17T15:32:08.978Z,33.30
2019-05-17T15:34:39.852Z,33.30
2019-05-17T15:37:11.497Z,33.30
2019-05-17T15:39:42.922Z,33.30
2019-05-17T15:42:13.452Z,33.40
2019-05-17T15:44:44.004Z,33.20
2019-05-17T15:47:14.511Z,33.10
2019-05-17T15:49:46.495Z,33.10
2019-05-17T15:52:17.004Z,33.00
2019-05-17T15:54:48.659Z,32.90
2019-05-17T15:57:20.336Z,32.80
2019-05-17T15:59:50.892Z,32.60
2019-05-17T16:02:21.422Z,32.30
2019-05-17T16:04:53.086Z,31.80
2019-05-17T16:07:23.581Z,31.20
2019-05-17T16:09:54.115Z,30.70
2019-05-17T16:12:24.644Z,30.30
2019-05-17T16:14:55.195Z,29.90
2019-05-17T16:17:25.698Z,29.60
2019-05-17T16:19:56.244Z,29.40
2019-05-17T16:22:27.198Z,29.50
2019-05-17T16:24:57.718Z,29.70
2019-05-17T16:27:28.284Z,30.10
2019-05-17T16:29:58.883Z,30.50
2019-05-17T16:32:29.414Z,30.80
2019-05-17T16:35:00.225Z,31.00
2019-05-17T16:37:32.152Z,30.80
2019-05-17T16:40:02.618Z,30.50
2019-05-17T16:42:33.438Z,30.10
2019-05-17T16:45:04.068Z,29.90
2019-05-17T16:47:34.545Z,29.70
2019-05-17T16:50:05.791Z,29.50
2019-05-17T16:52:37.403Z,29.20
2019-05-17T16:55:08.761Z,28.90
2019-05-17T16:57:39.541Z,28.40
2019-05-17T17:00:33.046Z,28.00
2019-05-17T17:03:04.270Z,27.50
2019-05-17T17:05:35.357Z,27.00
2019-05-17T17:08:06.797Z,26.80
2019-05-17T17:10:37.411Z,26.90
2019-05-17T17:13:08.176Z,26.90
2019-05-17T17:15:38.776Z,26.70
2019-05-17T17:18:09.373Z,26.50
2019-05-17T17:20:40.620Z,26.30
2019-05-17T17:23:11.825Z,26.10
2019-05-17T17:25:42.376Z,25.80
2019-05-17T17:28:12.857Z,25.50
2019-05-17T17:30:43.344Z,25.20
2019-05-17T17:33:13.873Z,24.90
2019-05-17T17:35:46.436Z,24.70
2019-05-17T17:38:16.923Z,24.40
2019-05-17T17:40:48.455Z,24.10
2019-05-17T17:43:18.984Z,23.80
2019-05-17T17:45:50.362Z,23.60
2019-05-17T17:48:22.902Z,23.30
2019-05-17T17:50:54.515Z,23.00
2019-05-17T17:53:25.035Z,22.80
2019-05-17T17:55:57.643Z,22.50
2019-05-17T17:58:29.369Z,22.20
2019-05-17T18:00:59.973Z,22.00
2019-05-17T18:03:30.965Z,21.70
2019-05-17T18:06:03.209Z,21.50
2019-05-17T18:08:34.794Z,21.30
2019-05-17T18:11:05.801Z,21.00
2019-05-17T18:13:37.669Z,20.80
2019-05-17T18:16:08.428Z,20.50
2019-05-17T18:18:40.591Z,20.30
2019-05-17T18:21:11.446Z,20.10
2019-05-17T18:23:50.712Z,19.90
2019-05-17T18:26:28.774Z,19.60
2019-05-17T18:29:02.302Z,19.40
2019-05-17T18:31:33.624Z,19.20
2019-05-17T18:34:49.866Z,19.00
2019-05-17T18:37:28.595Z,18.80
2019-05-17T18:40:06.928Z,18.50
2019-05-17T18:42:37.593Z,18.30
2019-05-17T18:45:08.634Z,18.10
2019-05-17T18:47:50.244Z,17.90
2019-05-17T18:50:20.139Z,17.80
2019-05-17T18:52:50.854Z,17.50
2019-05-17T18:55:22.055Z,17.40
2019-05-17T18:57:52.753Z,17.20
2019-05-17T19:00:25.360Z,17.00
2019-05-17T19:02:56.139Z,16.80
2019-05-17T19:05:28.080Z,16.60
2019-05-17T19:07:59.047Z,16.50
2019-05-17T19:10:31.129Z,16.30
2019-05-17T19:13:03.398Z,16.10
2019-05-17T19:15:37.430Z,15.90
2019-05-17T19:18:08.823Z,15.80
2019-05-17T19:20:42.298Z,15.60
2019-05-17T19:23:13.707Z,15.50
2019-05-17T19:25:47.288Z,15.30
2019-05-17T19:28:19.105Z,15.20
2019-05-17T19:30:50.766Z,15.00
2019-05-17T19:33:21.842Z,15.00
2019-05-17T19:35:58.489Z,14.80
2019-05-17T19:38:30.693Z,14.70
2019-05-17T19:41:08.863Z,14.70
2019-05-17T19:43:46.214Z,14.60
2019-05-17T19:46:17.231Z,14.50
2019-05-17T19:49:11.032Z,14.40
2019-05-17T19:51:44.687Z,14.40
2019-05-17T19:54:16.901Z,14.30
2019-05-17T19:56:51.075Z,14.20
2019-05-17T19:59:25.747Z,14.10
2019-05-17T20:01:56.304Z,14.00
2019-05-17T20:04:28.454Z,14.00
2019-05-17T20:07:01.099Z,13.90
2019-05-17T20:09:32.012Z,13.80
2019-05-17T20:12:04.436Z,13.70
2019-05-17T20:14:35.440Z,13.70
2019-05-17T20:17:07.860Z,13.60
2019-05-17T20:19:38.787Z,13.50
2019-05-17T20:22:09.478Z,13.40
2019-05-17T20:24:40.027Z,13.40
2019-05-17T20:27:11.525Z,13.30
2019-05-17T20:30:14.849Z,13.20
2019-05-17T20:32:46.100Z,13.10
2019-05-17T20:35:24.111Z,13.00
2019-05-17T20:37:54.739Z,13.00
2019-05-17T20:40:25.756Z,12.90
2019-05-17T20:42:56.643Z,12.80
2019-05-17T20:45:34.614Z,12.80
2019-05-17T20:48:05.581Z,12.70
2019-05-17T20:50:36.213Z,12.60
2019-05-17T20:53:24.560Z,12.60
2019-05-17T20:55:56.803Z,12.50
2019-05-17T20:58:28.519Z,12.40
2019-05-17T21:01:01.340Z,12.40
2019-05-17T21:03:31.942Z,12.30
2019-05-17T21:06:21.500Z,12.20
2019-05-17T21:08:54.686Z,12.20
2019-05-17T21:11:27.541Z,12.10
2019-05-17T21:17:51.144Z,12.00
2019-05-17T21:20:24.690Z,11.90
2019-05-17T21:22:58.037Z,11.90
2019-05-17T21:25:44.338Z,11.80
2019-05-17T21:28:14.797Z,11.70
2019-05-17T21:30:45.324Z,11.70
2019-05-17T21:33:15.925Z,11.60
2019-05-17T21:35:50.022Z,11.60
2019-05-17T21:38:30.051Z,11.50
2019-05-17T21:41:00.759Z,11.50
2019-05-17T21:43:31.320Z,11.50
2019-05-17T21:46:06.013Z,11.40
2019-05-17T21:48:36.513Z,11.40
2019-05-17T21:51:09.085Z,11.30
2019-05-17T21:53:39.599Z,11.30
2019-05-17T21:56:13.393Z,11.30
2019-05-17T21:58:43.878Z,11.20
2019-05-17T22:01:21.267Z,11.10
2019-05-17T22:04:02.485Z,11.00
2019-05-17T22:06:53.128Z,11.00
2019-05-17T22:09:23.926Z,10.90
2019-05-17T22:11:56.441Z,10.80
2019-05-17T22:14:27.019Z,10.80
2019-05-17T22:16:59.603Z,10.70
2019-05-17T22:19:33.665Z,10.70
2019-05-17T22:22:04.322Z,10.60
2019-05-17T22:24:42.442Z,10.60
2019-05-17T22:27:13.181Z,10.50
2019-05-17T22:29:45.567Z,10.50
2019-05-17T22:32:21.775Z,10.40
2019-05-17T22:34:52.375Z,10.40
2019-05-17T22:37:23.025Z,10.30
2019-05-17T22:40:02.302Z,10.20
2019-05-17T22:42:33.001Z,10.20
2019-05-17T22:45:08.221Z,10.20
2019-05-17T22:47:44.466Z,10.10
2019-05-17T22:50:16.498Z,10.10
2019-05-17T22:52:47.312Z,10.10
2019-05-17T22:55:17.810Z,10.10
2019-05-17T22:57:48.698Z,10.10
2019-05-17T23:00:20.532Z,10.10
2019-05-17T23:02:51.131Z,10.00
2019-05-17T23:05:25.892Z,10.00
2019-05-17T23:07:54.274Z,9.90
2019-05-17T23:10:24.733Z,9.80
2019-05-17T23:12:55.453Z,9.80
2019-05-17T23:15:28.196Z,9.70
2019-05-17T23:17:58.725Z,9.60
2019-05-17T23:20:30.481Z,9.50
2019-05-17T23:23:01.039Z,9.40
2019-05-17T23:25:31.869Z,9.40
2019-05-17T23:28:02.520Z,9.30
2019-05-17T23:30:33.346Z,9.20
2019-05-17T23:33:03.874Z,9.20
2019-05-17T23:35:34.383Z,9.10
2019-05-17T23:38:05.073Z,9.10
2019-05-17T23:40:35.563Z,9.00
2019-05-17T23:43:06.018Z,8.90
2019-05-17T23:45:37.514Z,8.90
2019-05-17T23:48:08.174Z,8.80
2019-05-17T23:50:39.104Z,8.80
2019-05-17T23:53:09.766Z,8.70
2019-05-17T23:55:40.379Z,8.70
2019-05-17T23:58:14.038Z,8.70
